Northeast Gulf: Past 24 Hour Conditions

 

Stephenville Airport

09:30 AM NDT 23 September 2014
This table is a summary of hourly weather conditions for the past 24 hours.
Date / Time
(NDT)
Wind(knots) Conditions Visibility(km) Pressure(kPa) Air tempC) Relative humidity(%) Dew pointC) Humidex
23 September 2014
9:30 W 15 gust 25 Cloudy 19 100.9 11 72 6 *
8:30 W 18 gust 25 Cloudy 19 100.8 11 70 5 *
7:30 W 15 gust 21 Light Drizzle 19 100.7 11 80 8 *
6:30 WSW 22 gust 30 Light Rainshower 19 100.5 12 84 10 *
5:30 W 25 gust 33 Cloudy 24 100.4 13 76 9 *
4:30 WSW 22 gust 31 Mostly Cloudy 24 100.3 14 83 11 *
3:30 WSW 25 gust 35 Mainly Clear 24 100.2 15 81 12 *
2:30 SW 21 Mainly Clear 24 100.1 15 86 13 *
1:30 SW 31 gust 36 Mostly Cloudy 24 100.0 17 86 14 *
0:30 SW 20 gust 26 Cloudy 24 100.0 18 87 16 *
22 September 2014
23:30 SSW 17 Mostly Cloudy 24 100.0 18 92 16 *
22:30 SSW 19 Light Rainshower 5 99.9 18 84 15 *
21:30 SSW 10 Partly Cloudy 24 99.8 18 92 17 *
20:30 SSW 13 Cloudy 24 99.9 18 93 17 *
19:30 SSW 9 Cloudy 19 99.9 17 99 16 *
18:30 SW 12 Fog 0.6 99.9 17 99 16 *
17:30 WSW 12 Cloudy 16 99.8 17 99 16 *
16:30 W 12 Cloudy 19 99.6 18 97 17 *
15:30 SW 10 gust 16 Cloudy 19 99.5 19 92 18 *
14:30 SW 18 gust 25 Light Rain 13 99.5 19 92 18 *
13:30 SSW 18 gust 28 Light Rain 6 99.4 20 95 19 *
12:30 S 17 gust 25 Light Rain 16 99.6 21 86 18 27
11:30 S 23 gust 32 Light Rain 16 99.7 20 84 18 26
10:30 SSE 17 gust 25 Light Rain 19 99.9 20 83 17 25
9:30 S 15 gust 23 Light Rain 19 100.2 19 87 17 *
 
Map of Atlantic - Newfoundland marine weather areas Southwestern Grand Banks - 44138 Banquereau - 44139 Tail of the Bank - 44140 Nickerson Bank - 44251 Northeast Burgeo Bank - 44255 Blanc-Sablon Airport Cap Whittle Chevery Natashquan Airport Heath Point Miscou Island Grand Étang Ingonish Beach North Mountain St.Paul Island J.A. Douglas McCurdy Sydney Airport Charlottetown Airport East Point North Cape Argentia Bonavista Burgeo Cape Race Corner Brook Daniel's Harbour Englee Ferolle Point La Scie Port aux Basques Rocky Harbour Sagona Island St. Anthony Airport St. John's Int'l Airport St. Lawrence Stephenville Airport Twillingate Winterland Wreckhouse Cartwright Airport Mary's Harbour Grates Cove Pool's Island Marticot Island Long Pond Îles de la Madeleine Airport
Legend: buoyBuoy land stationLand Station